Aviation Digital Data Service (ADDS)

Output produced by METARs form (0221 UTC 02 October 2014)
found at http://aviationweather.gov/adds/metars/
 
KDFW 012328Z 0200/0306 17014KT P6SM SCT250 
     FM021100 18011KT P6SM OVC015 
     FM021600 19018KT P6SM SCT030 
     FM022200 22018KT P6SM VCTS BKN050CB 
     FM030200 32014KT P6SM SCT100 BKN250